Time;durP1;ratioP1;P1;durP2;ratioP2;P2;SDS_P1;SDS_P2;PMS_P1;PMS_P2;Temp;Humidity;BMP_temperature;BMP_pressure;BME280_temperature;BME280_humidity;BME280_pressure;Samples;Min_cycle;Max_cycle;Signal;HPM_P1;HPM_P2
2021/12/02 00:01:58;;;;;;;0.10;0.10;;;;;;;7.20;67.88;99991.84;4990215;28;20106;-83
2021/12/02 00:04:26;;;;;;;0.15;0.15;;;;;;;7.23;67.77;100001.44;4986032;28;20030;-85
2021/12/02 00:06:52;;;;;;;0.20;0.20;;;;;;;7.26;67.86;100004.88;4987214;28;20030;-85
2021/12/02 00:09:19;;;;;;;0.20;0.20;;;;;;;7.32;68.10;100009.16;4989668;28;20474;-82
2021/12/02 00:11:45;;;;;;;0.10;0.10;;;;;;;7.25;67.76;100003.16;4984282;28;20397;-86
2021/12/02 00:14:13;;;;;;;0.20;0.20;;;;;;;7.20;67.59;100005.00;4990074;28;20037;-84
2021/12/02 00:16:50;;;;;;;0.10;0.10;;;;;;;7.20;67.28;99997.09;4990098;28;20030;-85
2021/12/02 00:22:05;;;;;;;0.20;0.20;;;;;;;7.19;66.86;100002.38;4987501;28;20042;-85
2021/12/02 00:24:36;;;;;;;0.20;0.20;;;;;;;7.16;67.29;100008.56;4990321;28;20031;-85
2021/12/02 00:27:06;;;;;;;0.20;0.20;;;;;;;7.12;67.28;100023.56;4986672;28;20050;-85
2021/12/02 00:29:34;;;;;;;0.20;0.20;;;;;;;7.09;67.58;100025.38;4981941;28;20124;-81
2021/12/02 00:32:06;;;;;;;0.20;0.20;;;;;;;7.15;67.59;100006.84;4991900;28;20074;-81
2021/12/02 00:34:33;;;;;;;0.20;0.20;;;;;;;7.03;67.80;100018.50;4988212;28;20039;-85
2021/12/02 00:37:01;;;;;;;0.10;0.10;;;;;;;7.09;67.31;100017.50;4992751;28;20092;-85
2021/12/02 00:39:29;;;;;;;0.20;0.20;;;;;;;7.10;67.48;100004.31;4988600;28;20030;-86
2021/12/02 00:41:56;;;;;;;0.20;0.20;;;;;;;7.07;67.57;100014.03;4989769;28;20038;-84
2021/12/02 00:44:22;;;;;;;0.15;0.15;;;;;;;7.04;67.00;100021.97;4987325;28;20034;-85
2021/12/02 00:46:49;;;;;;;0.20;0.20;;;;;;;7.15;67.28;100000.72;4988232;28;20045;-85
2021/12/02 00:49:18;;;;;;;0.17;0.17;;;;;;;7.14;66.95;99999.84;4988994;28;20504;-83
2021/12/02 00:51:51;;;;;;;0.10;0.10;;;;;;;7.12;66.82;100005.13;4989944;28;20077;-84
2021/12/02 00:54:18;;;;;;;0.20;0.20;;;;;;;7.09;66.91;100002.56;4985379;28;20054;-84
2021/12/02 00:56:44;;;;;;;0.20;0.20;;;;;;;7.06;66.51;99994.72;4985810;28;20428;-84
2021/12/02 00:59:11;;;;;;;0.10;0.10;;;;;;;7.06;66.40;100002.63;4991365;28;20381;-84
2021/12/02 01:01:38;;;;;;;0.20;0.20;;;;;;;7.04;66.25;99993.00;4987849;28;20105;-85
2021/12/02 01:04:09;;;;;;;0.20;0.20;;;;;;;7.07;66.30;99995.59;4991237;28;20461;-84
2021/12/02 01:06:35;;;;;;;0.20;0.20;;;;;;;6.99;66.27;100008.91;4987652;28;20022;-86
2021/12/02 01:09:03;;;;;;;0.10;0.10;;;;;;;6.96;66.49;100007.19;4992957;28;20141;-84
2021/12/02 01:11:30;;;;;;;0.10;0.10;;;;;;;6.92;66.29;100005.50;4991045;28;20034;-85
2021/12/02 01:13:56;;;;;;;0.20;0.20;;;;;;;6.96;66.15;100015.09;4990297;28;20046;-85
2021/12/02 01:16:22;;;;;;;0.15;0.15;;;;;;;7.00;65.85;100012.41;4984233;28;20026;-85
2021/12/02 01:18:49;;;;;;;0.20;0.20;;;;;;;6.91;65.87;100013.44;4991259;28;20385;-86
2021/12/02 01:21:19;;;;;;;0.10;0.10;;;;;;;6.93;66.19;100017.78;4985579;28;20038;-85
2021/12/02 01:23:51;;;;;;;0.20;0.20;;;;;;;6.95;65.23;100020.38;4992254;28;20428;-85
2021/12/02 01:26:18;;;;;;;0.10;0.10;;;;;;;6.93;64.70;100038.00;4983857;28;20040;-84
2021/12/02 01:28:45;;;;;;;0.20;0.20;;;;;;;6.89;63.49;100025.75;4986044;28;20034;-85
2021/12/02 01:31:12;;;;;;;0.20;0.20;;;;;;;6.98;62.43;100025.63;4988591;28;20030;-84
2021/12/02 01:33:40;;;;;;;0.20;0.20;;;;;;;7.02;63.02;100027.28;4991382;28;20112;-84
2021/12/02 01:36:06;;;;;;;0.10;0.10;;;;;;;7.02;62.61;100021.16;4990869;28;20023;-84
2021/12/02 01:38:33;;;;;;;0.68;0.68;;;;;;;6.96;62.06;100022.13;4980210;28;20034;-85
2021/12/02 01:41:02;;;;;;;0.10;0.10;;;;;;;6.96;62.21;100024.75;4985078;28;20374;-84
2021/12/02 01:43:49;;;;;;;0.10;0.10;;;;;;;7.06;62.49;100018.41;4994066;28;20405;-85
2021/12/02 01:46:20;;;;;;;0.10;0.10;;;;;;;6.89;61.32;100025.75;4982320;28;20027;-84
2021/12/02 01:48:51;;;;;;;0.10;0.10;;;;;;;6.99;61.84;100022.09;4990294;28;20030;-85
2021/12/02 01:51:19;;;;;;;0.20;0.20;;;;;;;6.96;61.90;100027.41;4989594;28;20496;-85
2021/12/02 01:53:51;;;;;;;0.10;0.10;;;;;;;7.03;62.54;100030.78;4989969;28;20081;-85
2021/12/02 01:56:21;;;;;;;0.10;0.10;;;;;;;7.02;62.03;100042.22;4989072;28;20481;-85
2021/12/02 01:58:50;;;;;;;0.20;0.20;;;;;;;6.92;62.58;100038.88;4994867;28;20066;-85
2021/12/02 02:01:22;;;;;;;0.10;0.10;;;;;;;7.07;63.58;100030.69;4988736;28;20058;-86
2021/12/02 02:03:51;;;;;;;0.10;0.10;;;;;;;6.97;63.55;100024.72;4988194;28;20019;-85
2021/12/02 02:06:27;;;;;;;0.20;0.20;;;;;;;6.94;63.79;100023.91;4989286;28;20068;-86
2021/12/02 02:08:56;;;;;;;0.10;0.10;;;;;;;6.84;63.29;100022.34;4980157;28;20027;-86
2021/12/02 02:11:25;;;;;;;0.13;0.13;;;;;;;6.85;63.77;100034.63;4989473;28;20031;-86
2021/12/02 02:13:52;;;;;;;0.10;0.10;;;;;;;6.80;63.34;100038.22;4981051;28;20062;-85
2021/12/02 02:16:19;;;;;;;0.20;0.20;;;;;;;6.73;63.81;100047.09;4988377;28;20038;-86
2021/12/02 02:18:45;;;;;;;0.20;0.20;;;;;;;6.72;64.90;100049.78;4994675;28;20525;-85
2021/12/02 02:21:15;;;;;;;0.10;0.10;;;;;;;6.79;65.85;100041.75;4988213;28;20037;-85
2021/12/02 02:23:47;;;;;;;0.20;0.20;;;;;;;6.81;65.04;100049.59;4993979;28;20062;-85
2021/12/02 02:26:14;;;;;;;0.20;0.20;;;;;;;6.71;65.52;100048.03;4985007;28;20381;-85
2021/12/02 02:28:41;;;;;;;0.10;0.10;;;;;;;6.73;65.42;100047.09;4986689;28;20084;-85
2021/12/02 02:31:07;;;;;;;0.10;0.10;;;;;;;6.73;65.16;100051.50;4987731;28;20038;-85
2021/12/02 02:33:36;;;;;;;0.10;0.10;;;;;;;6.73;65.56;100055.00;4988374;28;20481;-86
2021/12/02 02:36:05;;;;;;;0.10;0.10;;;;;;;6.70;65.66;100046.28;4986714;28;20030;-87
2021/12/02 02:38:32;;;;;;;0.20;0.20;;;;;;;6.70;65.75;100041.88;4983856;28;20126;-86
2021/12/02 02:41:00;;;;;;;0.10;0.10;;;;;;;6.72;65.56;100039.25;4987082;28;20045;-87
2021/12/02 02:43:27;;;;;;;0.20;0.20;;;;;;;6.76;65.51;100038.28;4984697;28;20474;-86
2021/12/02 02:45:53;;;;;;;0.20;0.20;;;;;;;6.74;65.45;100048.84;4984652;28;20030;-86
2021/12/02 02:48:20;;;;;;;0.15;0.15;;;;;;;6.78;65.43;100055.78;4981986;28;20038;-86
2021/12/02 02:50:46;;;;;;;0.20;0.20;;;;;;;6.75;65.33;100054.97;4977889;28;20038;-85
2021/12/02 02:53:18;;;;;;;2.42;2.33;;;;;;;6.47;64.78;100060.69;4987427;28;20043;-85
2021/12/02 02:55:55;;;;;;;0.20;0.20;;;;;;;6.46;63.76;100064.22;4987098;28;20030;-85
2021/12/02 02:58:44;;;;;;;0.10;0.10;;;;;;;6.34;64.21;100054.72;4987827;28;20041;-85
2021/12/02 03:01:27;;;;;;;0.10;0.10;;;;;;;6.24;65.08;100058.41;4990200;28;20046;-85
2021/12/02 03:04:06;;;;;;;0.15;0.15;;;;;;;6.17;65.97;100059.38;4979647;28;20456;-85
2021/12/02 03:06:41;;;;;;;0.20;0.20;;;;;;;6.20;65.04;100062.84;4979488;28;20042;-85
2021/12/02 03:09:13;;;;;;;0.20;0.20;;;;;;;6.17;65.39;100072.53;4981597;28;20039;-86
2021/12/02 03:11:46;;;;;;;0.32;0.32;;;;;;;6.14;66.77;100082.22;4988049;28;20034;-86
2021/12/02 03:14:17;;;;;;;0.20;0.20;;;;;;;6.14;67.12;100089.22;4979926;28;20105;-85
2021/12/02 03:16:44;;;;;;;0.10;0.10;;;;;;;6.23;67.28;100083.84;4992289;28;21589;-85
2021/12/02 03:19:12;;;;;;;0.10;0.10;;;;;;;6.26;67.80;100075.91;4992599;28;20034;-86
2021/12/02 03:21:38;;;;;;;0.10;0.10;;;;;;;6.28;68.00;100071.50;4979241;28;20037;-86
2021/12/02 03:24:05;;;;;;;0.20;0.20;;;;;;;6.26;68.18;100072.41;4981713;28;20109;-85
2021/12/02 03:26:32;;;;;;;0.10;0.10;;;;;;;6.29;67.94;100059.19;4984512;28;20065;-86
2021/12/02 03:29:00;;;;;;;0.10;0.10;;;;;;;6.33;68.11;100063.56;4990344;28;20027;-85
2021/12/02 03:31:26;;;;;;;0.10;0.10;;;;;;;6.35;67.94;100072.25;4984046;28;20039;-85
2021/12/02 03:33:53;;;;;;;0.10;0.10;;;;;;;6.38;67.54;100079.25;4994360;28;20030;-85
2021/12/02 03:36:19;;;;;;;0.10;0.10;;;;;;;6.40;67.48;100070.44;4984451;28;20042;-85
2021/12/02 03:38:47;;;;;;;0.20;0.20;;;;;;;6.38;66.75;100073.97;4989406;28;20466;-86
2021/12/02 03:41:16;;;;;;;0.20;0.20;;;;;;;6.33;66.71;100055.66;4990476;28;20129;-85
2021/12/02 03:43:45;;;;;;;0.10;0.10;;;;;;;6.40;66.73;100043.25;4983995;28;20053;-85
2021/12/02 03:46:13;;;;;;;0.10;0.10;;;;;;;6.42;66.81;100042.34;4983736;28;20043;-84
2021/12/02 03:48:40;;;;;;;0.20;0.20;;;;;;;6.38;66.57;100039.78;4983198;28;20030;-86
2021/12/02 03:51:08;;;;;;;0.10;0.10;;;;;;;6.38;66.53;100050.28;4984415;28;20045;-83
2021/12/02 03:53:34;;;;;;;0.10;0.10;;;;;;;6.38;66.56;100069.59;4985339;28;20034;-85
2021/12/02 03:56:01;;;;;;;0.20;0.20;;;;;;;6.37;66.83;100072.25;4989862;28;20433;-85
2021/12/02 03:58:28;;;;;;;0.20;0.20;;;;;;;6.39;66.90;100068.72;4993988;28;20092;-85
2021/12/02 04:00:55;;;;;;;0.15;0.15;;;;;;;6.39;66.72;100070.47;4994881;28;20027;-84
2021/12/02 04:03:21;;;;;;;0.20;0.20;;;;;;;6.39;66.76;100067.84;4995097;28;20022;-85
2021/12/02 04:05:47;;;;;;;0.10;0.10;;;;;;;6.43;67.13;100065.13;4989894;28;20038;-86
2021/12/02 04:08:13;;;;;;;0.10;0.10;;;;;;;6.47;67.02;100066.81;4982974;28;20027;-85
2021/12/02 04:10:41;;;;;;;0.10;0.10;;;;;;;6.50;67.05;100071.16;4987291;28;20487;-85
2021/12/02 04:13:18;;;;;;;0.10;0.10;;;;;;;6.53;67.04;100078.13;4992825;28;20030;-85
2021/12/02 04:15:49;;;;;;;0.10;0.10;;;;;;;6.52;66.99;100087.81;4982876;28;20034;-85
2021/12/02 04:18:16;;;;;;;0.10;0.10;;;;;;;6.53;66.91;100080.78;4983328;28;20038;-85
2021/12/02 04:20:43;;;;;;;0.10;0.10;;;;;;;6.43;67.05;100072.16;4989358;28;20465;-84
2021/12/02 04:23:09;;;;;;;0.10;0.10;;;;;;;6.46;67.21;100067.72;4982809;28;20034;-84
2021/12/02 04:25:35;;;;;;;0.17;0.17;;;;;;;6.45;66.96;100060.69;4985926;28;20060;-85
2021/12/02 04:28:01;;;;;;;0.10;0.10;;;;;;;6.43;66.88;100065.13;4992589;28;20034;-84
2021/12/02 04:30:36;;;;;;;0.10;0.10;;;;;;;6.50;67.29;100065.91;4985531;28;20044;-85
2021/12/02 04:33:11;;;;;;;0.10;0.10;;;;;;;6.52;67.38;100074.66;4983442;28;20860;-85
2021/12/02 04:35:44;;;;;;;0.10;0.10;;;;;;;6.34;67.30;100081.03;4981806;28;20121;-85
2021/12/02 04:38:19;;;;;;;0.10;0.10;;;;;;;6.43;67.24;100074.78;4975728;28;20053;-84
2021/12/02 04:40:46;;;;;;;0.17;0.17;;;;;;;6.35;66.60;100072.25;4980114;28;20027;-85
2021/12/02 04:43:12;;;;;;;0.20;0.20;;;;;;;6.39;66.74;100079.25;4984943;28;20052;-86
2021/12/02 04:45:38;;;;;;;0.17;0.17;;;;;;;6.45;66.33;100094.91;4987216;28;20034;-84
2021/12/02 04:48:04;;;;;;;0.20;0.20;;;;;;;6.36;66.48;100079.28;4984840;28;20037;-85
2021/12/02 04:50:31;;;;;;;0.10;0.10;;;;;;;6.39;65.79;100087.13;4986113;28;20045;-85
2021/12/02 04:52:57;;;;;;;0.10;0.10;;;;;;;6.32;65.80;100078.44;4985342;28;20045;-84
2021/12/02 04:55:23;;;;;;;0.20;0.20;;;;;;;6.27;65.84;100084.69;4985728;28;20469;-86
2021/12/02 04:57:49;;;;;;;0.10;0.10;;;;;;;6.20;65.64;100075.13;4986077;28;20060;-84
2021/12/02 05:00:16;;;;;;;0.10;0.10;;;;;;;6.18;65.75;100069.00;4982261;28;20033;-85
2021/12/02 05:02:43;;;;;;;0.15;0.15;;;;;;;6.08;65.98;100078.78;4982661;28;20023;-84
2021/12/02 05:05:11;;;;;;;0.10;0.10;;;;;;;6.05;65.97;100087.59;4981567;28;20264;-85
2021/12/02 05:07:37;;;;;;;0.10;0.10;;;;;;;6.01;66.02;100078.03;4986789;28;20464;-85
2021/12/02 05:10:06;;;;;;;0.20;0.20;;;;;;;6.00;66.01;100081.53;4990275;28;20050;-84
2021/12/02 05:12:33;;;;;;;0.10;0.10;;;;;;;6.00;66.01;100081.53;4981787;28;20106;-84
2021/12/02 05:15:00;;;;;;;0.20;0.20;;;;;;;5.97;66.22;100086.81;4984174;28;20093;-85
2021/12/02 05:17:26;;;;;;;0.20;0.20;;;;;;;5.92;66.23;100084.25;4987025;28;20422;-85
2021/12/02 05:19:52;;;;;;;0.20;0.20;;;;;;;5.97;66.24;100078.94;4989532;28;20045;-85
2021/12/02 05:22:18;;;;;;;0.13;0.13;;;;;;;5.95;66.15;100084.19;4985439;28;20034;-85
2021/12/02 05:24:45;;;;;;;0.10;0.10;;;;;;;6.02;66.23;100089.41;4992818;28;20027;-84
2021/12/02 05:27:12;;;;;;;0.10;0.10;;;;;;;6.08;66.10;100082.31;4974463;28;20039;-85
2021/12/02 05:29:39;;;;;;;0.20;0.20;;;;;;;6.20;65.73;100083.03;4983931;28;20043;-84
2021/12/02 05:32:06;;;;;;;0.10;0.10;;;;;;;6.25;65.82;100091.72;4989428;28;20042;-84
2021/12/02 05:34:32;;;;;;;0.10;0.10;;;;;;;6.24;66.02;100106.66;4981614;28;20035;-85
2021/12/02 05:36:58;;;;;;;0.10;0.10;;;;;;;6.20;65.57;100104.06;4981348;28;20030;-85
2021/12/02 05:39:24;;;;;;;0.15;0.15;;;;;;;6.11;64.26;100095.41;4975754;28;20478;-84
2021/12/02 05:41:53;;;;;;;0.10;0.10;;;;;;;6.01;64.70;100090.28;4974289;28;20513;-86
2021/12/02 05:44:21;;;;;;;0.17;0.17;;;;;;;5.95;65.41;100102.59;4975183;28;20027;-85
2021/12/02 05:46:47;;;;;;;0.10;0.10;;;;;;;5.91;66.00;100108.78;4982314;28;20103;-84
2021/12/02 05:49:13;;;;;;;0.10;0.10;;;;;;;5.84;66.45;100109.75;4980514;28;20073;-86
2021/12/02 05:51:42;;;;;;;0.15;0.15;;;;;;;5.92;66.53;100117.53;4987587;28;20027;-85
2021/12/02 05:54:08;;;;;;;0.10;0.10;;;;;;;5.93;66.48;100129.78;4988710;28;20114;-86
2021/12/02 05:56:35;;;;;;;0.10;0.10;;;;;;;5.97;66.11;100134.16;4992194;28;20031;-85
2021/12/02 05:59:01;;;;;;;0.10;0.10;;;;;;;5.95;65.86;100120.13;4990255;28;20037;-85
2021/12/02 06:01:27;;;;;;;0.10;0.10;;;;;;;5.91;66.00;100098.28;4989431;28;20045;-86
2021/12/02 06:03:53;;;;;;;0.20;0.20;;;;;;;5.91;66.11;100107.94;4974912;28;20094;-86
2021/12/02 06:06:20;;;;;;;0.10;0.10;;;;;;;5.92;66.29;100107.00;4979431;28;20105;-86
2021/12/02 06:08:46;;;;;;;0.17;0.17;;;;;;;5.94;67.13;100113.13;4984326;28;20053;-86
2021/12/02 06:11:12;;;;;;;0.17;0.17;;;;;;;5.96;67.12;100122.75;4980023;28;20473;-85
2021/12/02 06:13:39;;;;;;;0.10;0.10;;;;;;;5.99;67.48;100128.00;4983284;28;20062;-86
2021/12/02 06:16:05;;;;;;;0.10;0.10;;;;;;;6.05;67.82;100132.31;4983577;28;20034;-85
2021/12/02 06:18:31;;;;;;;1.00;1.00;;;;;;;6.01;67.29;100119.19;4984863;28;20036;-84
2021/12/02 06:20:57;;;;;;;0.10;0.10;;;;;;;5.88;66.47;100124.63;4987349;28;20504;-84
2021/12/02 06:23:24;;;;;;;0.10;0.10;;;;;;;5.78;66.47;100134.38;4983359;28;20089;-85
2021/12/02 06:25:50;;;;;;;0.15;0.15;;;;;;;5.71;66.12;100127.44;4992436;28;20436;-82
2021/12/02 06:28:18;;;;;;;0.20;0.20;;;;;;;5.67;66.45;100131.84;5002601;28;20114;-82
2021/12/02 06:30:45;;;;;;;0.20;0.20;;;;;;;5.64;67.44;100125.75;4989976;28;20038;-86
2021/12/02 06:33:12;;;;;;;0.20;0.20;;;;;;;5.65;67.18;100122.25;4989144;28;20388;-84
2021/12/02 06:35:40;;;;;;;0.20;0.20;;;;;;;5.65;66.29;100138.00;4987844;28;20474;-84
2021/12/02 06:38:06;;;;;;;0.10;0.10;;;;;;;5.66;66.36;100151.13;4984218;28;20093;-84
2021/12/02 06:40:34;;;;;;;0.10;0.10;;;;;;;5.63;66.54;100145.94;4990557;28;20381;-84
2021/12/02 06:43:02;;;;;;;0.10;0.10;;;;;;;5.56;66.55;100138.09;4985510;28;20359;-84
2021/12/02 06:45:28;;;;;;;0.10;0.10;;;;;;;5.57;66.42;100137.22;4988736;28;20035;-87
2021/12/02 06:47:58;;;;;;;0.10;0.10;;;;;;;5.55;65.92;100142.50;4984209;28;20038;-80
2021/12/02 06:50:27;;;;;;;0.10;0.10;;;;;;;5.58;66.17;100136.34;4987454;28;20042;-80
2021/12/02 06:52:53;;;;;;;0.10;0.10;;;;;;;5.51;65.85;100139.03;4988726;28;20062;-86
2021/12/02 06:55:20;;;;;;;0.10;0.10;;;;;;;5.45;65.70;100144.34;4993246;28;20034;-86
2021/12/02 06:57:47;;;;;;;0.17;0.17;;;;;;;5.48;65.94;100146.97;4991071;28;20058;-87
2021/12/02 07:00:15;;;;;;;0.20;0.20;;;;;;;5.44;66.06;100150.47;4988634;28;20030;-88
2021/12/02 07:02:42;;;;;;;0.20;0.20;;;;;;;5.39;65.74;100156.69;4989705;28;20034;-90
2021/12/02 07:05:12;;;;;;;0.17;0.17;;;;;;;5.35;66.11;100161.94;4989897;28;20048;-89
2021/12/02 07:07:39;;;;;;;0.10;0.10;;;;;;;5.26;65.20;100167.31;4990361;28;20030;-83
2021/12/02 07:10:09;;;;;;;0.10;0.10;;;;;;;5.28;65.76;100160.28;4988293;28;20038;-87
2021/12/02 07:12:38;;;;;;;0.10;0.10;;;;;;;5.22;65.22;100164.72;4996042;28;20034;-87
2021/12/02 07:15:10;;;;;;;0.20;0.20;;;;;;;5.15;64.96;100164.75;4995757;28;20027;-87
2021/12/02 07:17:36;;;;;;;0.20;0.20;;;;;;;5.14;64.76;100157.75;4995248;28;20037;-87
2021/12/02 07:20:04;;;;;;;0.10;0.10;;;;;;;5.17;65.41;100160.38;4995041;28;20045;-87
2021/12/02 07:22:30;;;;;;;0.10;0.10;;;;;;;5.13;65.01;100161.28;4992750;28;20105;-88
2021/12/02 07:24:56;;;;;;;0.15;0.15;;;;;;;5.16;65.29;100178.78;4994139;28;20034;-88
2021/12/02 07:27:22;;;;;;;0.75;0.75;;;;;;;5.17;65.86;100177.88;4994318;28;20489;-88
2021/12/02 07:29:49;;;;;;;0.15;0.15;;;;;;;5.18;65.53;100177.00;4994489;28;20045;-88
2021/12/02 07:32:15;;;;;;;0.10;0.10;;;;;;;5.14;66.68;100178.78;4991910;28;20023;-87
2021/12/02 07:34:44;;;;;;;0.17;0.17;;;;;;;5.15;65.89;100175.28;4994670;28;20101;-88
2021/12/02 07:37:14;;;;;;;0.10;0.10;;;;;;;5.28;66.71;100181.31;4994368;28;20544;-88
2021/12/02 07:39:40;;;;;;;0.10;0.10;;;;;;;5.25;66.23;100180.47;4994166;28;20065;-88
2021/12/02 07:42:06;;;;;;;0.10;0.10;;;;;;;5.30;65.39;100184.78;4994203;28;20084;-87
2021/12/02 07:44:35;;;;;;;0.13;0.13;;;;;;;5.34;65.22;100204.88;4994108;28;20084;-89
2021/12/02 07:47:03;;;;;;;0.20;0.20;;;;;;;5.26;66.06;100211.06;4992870;28;20034;-88
2021/12/02 07:49:31;;;;;;;0.20;0.20;;;;;;;5.26;66.09;100213.69;4990484;28;20045;-89
2021/12/02 07:52:01;;;;;;;0.10;0.10;;;;;;;5.22;67.31;100227.75;4994017;28;20035;-87
2021/12/02 07:54:31;;;;;;;0.20;0.20;;;;;;;5.24;67.20;100229.47;4983816;28;20027;-86
2021/12/02 07:56:58;;;;;;;0.13;0.13;;;;;;;5.30;67.45;100236.44;4992780;28;20042;-89
2021/12/02 07:59:24;;;;;;;0.20;0.20;;;;;;;5.33;67.06;100253.06;4993059;28;20377;-86
2021/12/02 08:01:51;;;;;;;0.10;0.10;;;;;;;5.34;67.87;100246.03;4992879;28;20041;-85
2021/12/02 08:04:17;;;;;;;0.20;0.20;;;;;;;5.39;67.86;100256.50;4993608;28;20034;-83
2021/12/02 08:06:49;;;;;;;0.10;0.10;;;;;;;5.45;67.92;100262.56;4993103;28;20080;-83
2021/12/02 08:09:15;;;;;;;0.20;0.20;;;;;;;5.50;68.08;100262.56;4973293;28;20035;-86
2021/12/02 08:11:41;;;;;;;3.60;2.92;;;;;;;5.53;67.72;100253.75;4973830;28;20031;-86
2021/12/02 08:14:12;;;;;;;0.10;0.10;;;;;;;5.57;67.66;100258.09;4983844;28;20481;-87
2021/12/02 08:16:39;;;;;;;0.20;0.20;;;;;;;5.53;68.08;100259.88;4988691;28;20043;-84
2021/12/02 08:19:05;;;;;;;0.17;0.17;;;;;;;5.54;67.31;100259.00;4991548;28;20065;-86
2021/12/02 08:21:31;;;;;;;0.10;0.10;;;;;;;5.53;67.30;100264.28;4992341;28;20038;-85
2021/12/02 08:23:57;;;;;;;0.20;0.20;;;;;;;5.49;67.83;100269.53;4989190;28;20037;-85
2021/12/02 08:26:23;;;;;;;0.15;0.15;;;;;;;5.50;67.61;100276.53;4990817;28;20056;-86
2021/12/02 08:28:49;;;;;;;0.10;0.10;;;;;;;5.53;67.50;100282.66;4985298;28;20067;-82
2021/12/02 08:31:16;;;;;;;0.10;0.10;;;;;;;5.51;68.31;100278.28;4987615;28;20050;-86
2021/12/02 08:33:43;;;;;;;0.17;0.17;;;;;;;5.51;67.88;100282.69;4992475;28;20069;-87
2021/12/02 08:36:09;;;;;;;0.20;0.20;;;;;;;5.50;68.09;100280.94;4992957;28;20381;-86
2021/12/02 08:38:36;;;;;;;0.17;0.17;;;;;;;5.49;68.14;100290.56;4992519;28;20038;-87
2021/12/02 08:41:02;;;;;;;0.10;0.10;;;;;;;5.53;68.52;100295.81;4991989;28;20513;-86
2021/12/02 08:43:30;;;;;;;0.20;0.20;;;;;;;5.60;68.88;100305.41;4992254;28;20474;-86
2021/12/02 08:45:56;;;;;;;0.20;0.20;;;;;;;5.71;69.18;100306.16;4992742;28;20034;-92
2021/12/02 08:48:23;;;;;;;0.10;0.10;;;;;;;5.87;69.08;100327.06;4992490;28;20029;-86
2021/12/02 08:50:49;;;;;;;0.10;0.10;;;;;;;5.98;69.08;100334.00;4989651;28;20041;-87
2021/12/02 08:53:18;;;;;;;0.20;0.20;;;;;;;6.04;69.08;100314.66;4991664;28;20073;-84
2021/12/02 08:55:49;;;;;;;0.10;0.10;;;;;;;6.05;68.88;100316.41;4983261;28;20108;-87
2021/12/02 08:58:16;;;;;;;1.73;1.70;;;;;;;6.05;68.83;100321.66;4983035;28;20048;-85
2021/12/02 09:00:42;;;;;;;0.28;0.28;;;;;;;6.04;68.81;100319.91;4990329;28;20050;-85
2021/12/02 09:03:12;;;;;;;0.20;0.20;;;;;;;6.04;68.74;100322.53;4987599;28;20485;-86
2021/12/02 09:05:39;;;;;;;0.38;0.38;;;;;;;6.02;68.71;100321.69;4990128;28;20496;-86
2021/12/02 09:08:05;;;;;;;0.45;0.45;;;;;;;6.01;68.46;100343.63;4991691;28;20030;-86
2021/12/02 09:10:32;;;;;;;4.10;0.77;;;;;;;5.98;68.46;100343.59;4990666;28;20038;-87
2021/12/02 09:12:58;;;;;;;0.10;0.10;;;;;;;5.94;68.52;100339.28;4991956;28;20046;-89
2021/12/02 09:15:25;;;;;;;0.10;0.10;;;;;;;5.91;68.21;100341.94;4992393;28;20021;-87
2021/12/02 09:17:52;;;;;;;0.20;0.20;;;;;;;5.90;68.00;100341.03;4992443;28;20106;-87
2021/12/02 09:20:18;;;;;;;0.20;0.20;;;;;;;5.87;68.32;100342.84;4986583;28;20049;-88
2021/12/02 09:22:45;;;;;;;0.10;0.10;;;;;;;5.86;68.32;100335.81;4989696;28;20030;-87
2021/12/02 09:25:14;;;;;;;0.20;0.20;;;;;;;5.86;68.41;100341.09;4992719;28;20076;-87
2021/12/02 09:27:40;;;;;;;0.20;0.20;;;;;;;5.87;68.54;100340.19;4999998;28;20069;-86
2021/12/02 09:30:09;;;;;;;0.85;0.85;;;;;;;5.94;69.03;100345.41;4991982;28;20035;-92
2021/12/02 09:32:36;;;;;;;2.42;2.30;;;;;;;6.03;68.92;100349.75;4990668;28;20504;-91
2021/12/02 09:35:03;;;;;;;0.10;0.10;;;;;;;6.14;69.03;100350.53;4993842;28;20054;-90
2021/12/02 09:37:29;;;;;;;0.20;0.20;;;;;;;6.25;68.94;100347.75;4992166;28;20031;-89
2021/12/02 09:39:56;;;;;;;0.20;0.20;;;;;;;6.38;68.81;100360.78;4991364;28;20045;-89
2021/12/02 09:42:24;;;;;;;0.25;0.25;;;;;;;6.50;68.56;100365.06;4990185;28;20767;-89
2021/12/02 09:44:55;;;;;;;0.10;0.10;;;;;;;6.61;68.36;100360.56;4991806;28;20035;-90
2021/12/02 09:47:22;;;;;;;0.45;0.45;;;;;;;6.66;67.75;100352.59;4985203;28;20026;-84
2021/12/02 09:49:48;;;;;;;0.10;0.10;;;;;;;6.72;67.56;100356.03;4975431;28;20042;-92
2021/12/02 09:52:16;;;;;;;0.10;0.10;;;;;;;6.79;67.45;100365.59;4973404;28;20031;-87
2021/12/02 09:54:49;;;;;;;0.10;0.10;;;;;;;6.86;67.06;100362.91;4979272;28;20023;-88
2021/12/02 09:57:19;;;;;;;0.17;0.17;;;;;;;6.90;66.47;100372.50;4979543;28;20061;-88
2021/12/02 10:02:30;;;;;;;0.10;0.10;;;;;;;7.10;65.78;100373.13;5051443;28;20400;-77
2021/12/02 10:05:04;;;;;;;0.10;0.10;;;;;;;7.22;65.35;100389.66;5047072;28;20028;-77
2021/12/02 10:07:35;;;;;;;0.20;0.20;;;;;;;7.40;65.93;100383.25;5048031;28;20029;-78
2021/12/02 10:10:41;;;;;;;0.10;0.10;;;;;;;7.54;64.73;100380.41;5066727;28;20151;-78
2021/12/02 10:13:25;;;;;;;0.20;0.20;;;;;;;7.90;65.99;100392.16;5028916;28;20100;-77
2021/12/02 10:21:40;;;;;;;0.20;0.20;;;;;;;7.29;64.58;100431.72;5109636;27;20395;-77
2021/12/02 10:24:10;;;;;;;0.20;0.20;;;;;;;7.02;65.10;100432.91;5109810;28;20538;-78
2021/12/02 10:26:41;;;;;;;0.10;0.10;;;;;;;6.82;65.38;100448.06;5110615;28;20034;-78
2021/12/02 10:29:12;;;;;;;0.20;0.20;;;;;;;6.66;66.30;100448.25;5078118;28;20020;-78
2021/12/02 10:31:38;;;;;;;0.10;0.10;;;;;;;6.56;66.73;100439.56;5108569;28;20023;-78
2021/12/02 10:34:07;;;;;;;0.10;0.10;;;;;;;6.48;66.75;100454.56;5106634;28;20036;-78
2021/12/02 10:36:43;;;;;;;0.20;0.20;;;;;;;6.51;66.92;100456.31;5106318;28;20033;-78
2021/12/02 10:42:05;;;;;;;0.20;0.20;;;;;;;6.37;67.59;100475.72;5093159;27;20394;-78
2021/12/02 10:44:34;;;;;;;0.20;0.20;;;;;;;6.23;67.42;100482.84;5092601;28;20031;-78
2021/12/02 10:47:10;;;;;;;0.10;0.10;;;;;;;6.12;67.43;100496.94;5090084;28;20058;-78
2021/12/02 10:52:32;;;;;;;0.10;0.10;;;;;;;5.98;67.18;100510.19;5093571;27;20395;-80
2021/12/02 11:00:36;;;;;;;0.10;0.10;;;;;;;5.58;67.71;100483.22;5071331;27;20473;-80
2021/12/02 11:03:09;;;;;;;0.20;0.20;;;;;;;5.60;67.75;100484.09;5069032;28;20025;-78
2021/12/02 11:05:43;;;;;;;0.10;0.10;;;;;;;5.56;67.80;100491.13;5067302;28;20467;-79
2021/12/02 11:08:11;;;;;;;0.10;0.10;;;;;;;5.56;68.20;100490.25;5067690;28;20055;-78
2021/12/02 11:10:40;;;;;;;0.20;0.20;;;;;;;5.49;68.20;100479.75;5069053;28;20032;-78
2021/12/02 11:13:07;;;;;;;0.20;0.20;;;;;;;5.53;68.36;100479.75;5071349;28;20207;-80
2021/12/02 11:15:36;;;;;;;0.15;0.15;;;;;;;5.58;68.35;100472.72;5070350;28;20094;-77
2021/12/02 11:18:07;;;;;;;0.10;0.10;;;;;;;5.62;68.36;100463.94;5069756;28;20438;-78
2021/12/02 11:20:57;;;;;;;0.10;0.10;;;;;;;5.67;68.48;100460.41;5069806;28;20478;-77
2021/12/02 11:23:30;;;;;;;0.10;0.10;;;;;;;5.64;68.57;100467.44;5068804;28;20036;-85
2021/12/02 11:28:43;;;;;;;0.10;0.10;;;;;;;5.76;68.49;100446.31;5090624;28;20417;-76
2021/12/02 11:31:13;;;;;;;0.10;0.10;;;;;;;5.81;68.73;100449.78;5053256;22;20125;-87
2021/12/02 11:33:40;;;;;;;0.10;0.10;;;;;;;5.88;68.42;100448.00;5030111;28;20061;-86
2021/12/02 11:36:15;;;;;;;0.10;0.10;;;;;;;5.96;68.38;100454.06;5030325;28;20044;-87
2021/12/02 11:38:42;;;;;;;0.10;0.10;;;;;;;6.00;68.64;100460.22;5030354;28;20057;-86
2021/12/02 11:41:08;;;;;;;0.20;0.20;;;;;;;6.06;68.53;100465.44;5030382;28;20069;-86
2021/12/02 11:43:38;;;;;;;1.30;1.20;;;;;;;6.09;68.29;100465.44;5030035;28;20068;-86
2021/12/02 11:46:07;;;;;;;0.20;0.20;;;;;;;6.06;68.16;100467.19;5030370;28;20032;-87
2021/12/02 11:48:38;;;;;;;0.20;0.20;;;;;;;6.07;67.99;100464.56;5029913;28;20065;-86
2021/12/02 11:51:10;;;;;;;0.20;0.20;;;;;;;6.16;68.54;100482.03;5030152;28;20503;-86
2021/12/02 11:53:36;;;;;;;0.20;0.20;;;;;;;6.29;68.45;100482.78;5030139;28;20112;-86
2021/12/02 11:56:06;;;;;;;0.13;0.13;;;;;;;6.40;68.80;100475.66;5030377;28;20113;-91
2021/12/02 11:58:32;;;;;;;0.20;0.20;;;;;;;6.53;68.61;100476.47;5030199;28;20037;-89
2021/12/02 12:00:59;;;;;;;0.10;0.10;;;;;;;6.67;68.46;100470.16;5028690;28;20072;-88
2021/12/02 12:03:32;;;;;;;0.13;0.13;;;;;;;6.74;68.53;100479.75;5029709;28;20132;-88
2021/12/02 12:08:41;;;;;;;0.20;0.20;;;;;;;6.97;67.98;100490.06;5074152;27;20442;-87